createdAt,value
2018-10-09T00:01:58.555Z,28.30
2018-10-09T00:04:25.604Z,31.43
2018-10-09T00:06:52.633Z,26.83
2018-10-09T00:09:20.025Z,32.57
2018-10-09T00:11:47.190Z,24.87
2018-10-09T00:14:14.222Z,32.13
2018-10-09T00:16:41.660Z,29.87
2018-10-09T00:19:08.686Z,29.13
2018-10-09T00:21:35.789Z,28.70
2018-10-09T00:24:03.405Z,31.70
2018-10-09T00:26:30.675Z,33.83
2018-10-09T00:28:57.817Z,34.23
2018-10-09T00:31:24.899Z,29.17
2018-10-09T00:33:51.960Z,29.20
2018-10-09T00:36:18.985Z,21.53
2018-10-09T00:38:46.076Z,28.20
2018-10-09T00:41:13.300Z,33.67
2018-10-09T00:43:40.356Z,26.23
2018-10-09T00:46:07.423Z,25.63
2018-10-09T00:48:34.484Z,27.87
2018-10-09T00:51:01.540Z,27.10
2018-10-09T00:53:28.575Z,27.70
2018-10-09T00:55:55.601Z,25.70
2018-10-09T00:58:22.627Z,27.13
2018-10-09T01:00:49.685Z,24.90
2018-10-09T01:03:16.748Z,24.57
2018-10-09T01:05:43.808Z,28.73
2018-10-09T01:08:10.874Z,26.33
2018-10-09T01:10:37.987Z,28.73
2018-10-09T01:13:05.031Z,27.70
2018-10-09T01:15:32.196Z,27.90
2018-10-09T01:17:59.244Z,32.20
2018-10-09T01:20:30.347Z,28.23
2018-10-09T01:22:57.486Z,26.00
2018-10-09T01:25:24.542Z,27.37
2018-10-09T01:27:51.575Z,28.57
2018-10-09T01:30:18.948Z,32.23
2018-10-09T01:32:46.059Z,28.47
2018-10-09T01:35:13.104Z,31.57
2018-10-09T01:37:40.184Z,27.07
2018-10-09T01:40:07.207Z,37.30
2018-10-09T01:42:34.256Z,32.10
2018-10-09T01:45:01.649Z,28.40
2018-10-09T01:47:28.712Z,33.30
2018-10-09T01:49:55.738Z,25.90
2018-10-09T01:52:22.815Z,30.00
2018-10-09T01:54:49.887Z,33.73
2018-10-09T01:57:16.943Z,26.57
2018-10-09T01:59:44.033Z,38.87
2018-10-09T02:02:11.099Z,31.27
2018-10-09T02:04:38.115Z,28.27
2018-10-09T02:07:05.529Z,32.90
2018-10-09T02:09:32.582Z,28.00
2018-10-09T02:11:59.623Z,27.77
2018-10-09T02:14:26.696Z,31.20
2018-10-09T02:16:53.773Z,33.43
2018-10-09T02:19:20.799Z,33.23
2018-10-09T02:21:48.257Z,34.80
2018-10-09T02:24:15.336Z,28.00
2018-10-09T02:26:42.400Z,34.63
2018-10-09T02:29:09.476Z,32.80
2018-10-09T02:31:36.536Z,32.90
2018-10-09T02:34:03.630Z,32.50
2018-10-09T02:36:30.986Z,31.50
2018-10-09T02:38:58.004Z,33.60
2018-10-09T02:41:25.071Z,36.77
2018-10-09T02:43:52.183Z,31.30
2018-10-09T02:46:19.196Z,31.50
2018-10-09T02:48:46.212Z,31.10
2018-10-09T02:51:13.580Z,27.77
2018-10-09T02:53:40.601Z,30.27
2018-10-09T02:56:07.660Z,31.20
2018-10-09T02:58:35.144Z,33.90
2018-10-09T03:01:02.176Z,30.20
2018-10-09T03:03:29.234Z,32.57
2018-10-09T03:05:56.303Z,33.90
2018-10-09T03:08:23.385Z,31.13
2018-10-09T03:10:50.481Z,34.27
2018-10-09T03:13:24.541Z,33.80
2018-10-09T03:15:51.599Z,35.80
2018-10-09T03:18:18.628Z,32.27
2018-10-09T03:20:45.709Z,35.00
2018-10-09T03:23:12.784Z,41.97
2018-10-09T03:25:39.890Z,38.73
2018-10-09T03:28:07.283Z,31.50
2018-10-09T03:30:34.341Z,42.27
2018-10-09T03:33:01.445Z,34.13
2018-10-09T03:35:28.517Z,34.80
2018-10-09T03:37:55.543Z,34.37
2018-10-09T03:40:22.594Z,32.47
2018-10-09T03:42:49.717Z,37.40
2018-10-09T03:45:16.780Z,36.23
2018-10-09T03:47:43.820Z,35.03
2018-10-09T03:50:10.967Z,34.60
2018-10-09T03:52:38.024Z,31.50
2018-10-09T03:55:05.208Z,36.40
2018-10-09T03:57:32.263Z,34.13
2018-10-09T03:59:59.283Z,38.10
2018-10-09T04:02:26.340Z,33.97
2018-10-09T04:04:53.717Z,31.27
2018-10-09T04:07:20.776Z,31.23
2018-10-09T04:09:47.840Z,32.03
2018-10-09T04:12:14.925Z,29.90
2018-10-09T04:14:42.006Z,31.83
2018-10-09T04:17:09.094Z,33.10
2018-10-09T04:19:36.317Z,43.23
2018-10-09T04:22:03.255Z,36.17
2018-10-09T04:24:30.297Z,30.70
2018-10-09T04:26:57.651Z,47.83
2018-10-09T04:29:24.706Z,44.33
2018-10-09T04:31:51.818Z,37.10
2018-10-09T04:34:18.900Z,36.33
2018-10-09T04:36:45.955Z,37.90
2018-10-09T04:39:12.987Z,39.90
2018-10-09T04:41:40.025Z,37.40
2018-10-09T04:44:07.054Z,40.70
2018-10-09T04:46:34.171Z,40.90
2018-10-09T04:49:01.597Z,44.60
2018-10-09T04:51:28.652Z,44.53
2018-10-09T04:53:55.690Z,48.20
2018-10-09T04:56:23.028Z,41.60
2018-10-09T04:58:50.105Z,45.60
2018-10-09T05:01:17.155Z,45.37
2018-10-09T05:03:44.476Z,47.97
2018-10-09T05:06:11.524Z,46.43
2018-10-09T05:08:38.550Z,50.40
2018-10-09T05:11:05.626Z,36.70
2018-10-09T05:13:32.723Z,45.40
2018-10-09T05:15:59.741Z,49.03
2018-10-09T05:18:27.200Z,47.80
2018-10-09T05:20:54.235Z,49.40
2018-10-09T05:23:21.346Z,51.47
2018-10-09T05:25:48.376Z,58.33
2018-10-09T05:28:15.535Z,59.83
2018-10-09T05:30:42.584Z,65.43
2018-10-09T05:33:09.971Z,60.23
2018-10-09T05:35:36.994Z,62.57
2018-10-09T05:38:04.018Z,72.33
2018-10-09T05:40:31.365Z,64.63
2018-10-09T05:42:58.423Z,67.80
2018-10-09T05:45:25.480Z,74.40
2018-10-09T05:47:52.568Z,70.80
2018-10-09T05:50:19.646Z,75.50
2018-10-09T05:52:46.712Z,67.80
2018-10-09T05:55:14.100Z,70.97
2018-10-09T05:57:41.121Z,72.33
2018-10-09T06:00:08.455Z,78.67
2018-10-09T06:02:35.820Z,79.73
2018-10-09T06:05:03.096Z,81.37
2018-10-09T06:07:30.151Z,84.80
2018-10-09T06:09:57.224Z,95.33
2018-10-09T06:12:24.376Z,99.60
2018-10-09T06:14:51.480Z,112.43
2018-10-09T06:17:18.592Z,97.03
2018-10-09T06:19:45.656Z,99.80
2018-10-09T06:22:12.749Z,115.03
2018-10-09T06:24:39.826Z,121.93
2018-10-09T06:27:06.968Z,108.43
2018-10-09T06:29:34.116Z,89.50
2018-10-09T06:32:01.482Z,93.17
2018-10-09T06:34:28.489Z,101.93
2018-10-09T06:36:55.450Z,87.83
2018-10-09T06:39:22.852Z,94.77
2018-10-09T06:41:49.896Z,95.50
2018-10-09T06:44:16.950Z,89.40
2018-10-09T06:46:44.304Z,78.00
2018-10-09T06:49:11.407Z,69.53
2018-10-09T06:51:38.461Z,73.03
2018-10-09T06:54:05.990Z,77.87
2018-10-09T06:56:32.907Z,76.10
2018-10-09T06:59:00.021Z,85.53
2018-10-09T07:01:27.268Z,105.77
2018-10-09T07:03:54.403Z,81.03
2018-10-09T07:06:21.590Z,73.47
2018-10-09T07:08:49.044Z,73.53
2018-10-09T07:11:16.171Z,78.30
2018-10-09T07:13:43.136Z,77.37
2018-10-09T07:16:10.284Z,70.73
2018-10-09T07:18:37.360Z,68.07
2018-10-09T07:21:04.481Z,91.97
2018-10-09T07:23:31.621Z,83.47
2018-10-09T07:25:58.656Z,70.80
2018-10-09T07:28:25.841Z,79.60
2018-10-09T07:30:53.284Z,73.77
2018-10-09T07:33:20.319Z,71.17
2018-10-09T07:35:47.349Z,82.30
2018-10-09T07:38:14.508Z,82.87
2018-10-09T07:40:41.544Z,75.27
2018-10-09T07:43:08.665Z,71.37
2018-10-09T07:45:35.731Z,71.33
2018-10-09T07:48:02.791Z,74.00
2018-10-09T07:50:30.036Z,77.83
2018-10-09T07:52:57.124Z,78.47
2018-10-09T07:55:24.239Z,74.73
2018-10-09T07:57:51.298Z,70.33
2018-10-09T08:00:18.646Z,68.10
2018-10-09T08:02:45.721Z,70.33
2018-10-09T08:05:12.763Z,70.63
2018-10-09T08:07:39.858Z,66.30
2018-10-09T08:10:06.900Z,75.23
2018-10-09T08:12:34.542Z,67.67
2018-10-09T08:15:01.913Z,82.50
2018-10-09T08:17:29.410Z,78.53
2018-10-09T08:19:56.714Z,71.03
2018-10-09T08:22:25.636Z,76.47
2018-10-09T08:24:53.030Z,91.30
2018-10-09T08:27:21.097Z,77.57
2018-10-09T08:29:49.103Z,70.73
2018-10-09T08:32:17.039Z,70.83
2018-10-09T08:34:45.841Z,75.17
2018-10-09T08:37:13.928Z,70.07
2018-10-09T08:39:42.874Z,58.27
2018-10-09T08:42:10.685Z,64.27
2018-10-09T08:44:38.819Z,66.23
2018-10-09T08:47:07.305Z,69.67
2018-10-09T08:49:35.654Z,74.13
2018-10-09T08:52:04.664Z,65.17
2018-10-09T08:54:32.629Z,62.13
2018-10-09T08:57:01.212Z,64.47
2018-10-09T08:59:28.712Z,49.10
2018-10-09T09:01:56.423Z,53.70
2018-10-09T09:04:24.032Z,57.87
2018-10-09T09:06:52.837Z,60.93
2018-10-09T09:09:20.113Z,56.17
2018-10-09T09:11:48.779Z,63.07
2018-10-09T09:14:16.684Z,58.83
2018-10-09T09:16:45.799Z,50.40
2018-10-09T09:19:13.504Z,55.67
2018-10-09T09:21:41.328Z,57.63
2018-10-09T09:24:09.403Z,51.60
2018-10-09T09:26:36.622Z,65.87
2018-10-09T09:29:03.715Z,54.20
2018-10-09T09:31:30.812Z,50.33
2018-10-09T09:33:57.969Z,50.37
2018-10-09T09:36:25.397Z,53.20
2018-10-09T09:38:52.503Z,53.50
2018-10-09T09:41:19.539Z,54.53
2018-10-09T09:43:46.604Z,45.60
2018-10-09T09:46:13.713Z,58.03
2018-10-09T09:48:40.744Z,59.83
2018-10-09T09:51:08.044Z,48.67
2018-10-09T09:53:35.096Z,46.57
2018-10-09T09:56:02.160Z,67.13
2018-10-09T09:58:29.405Z,47.80
2018-10-09T10:00:57.354Z,41.40
2018-10-09T10:03:24.984Z,43.40
2018-10-09T10:05:52.096Z,63.13
2018-10-09T10:08:19.139Z,50.20
2018-10-09T10:10:46.321Z,42.43
2018-10-09T10:13:13.408Z,39.97
2018-10-09T10:15:40.458Z,44.50
2018-10-09T10:18:07.480Z,39.50
2018-10-09T10:20:34.800Z,77.97
2018-10-09T10:23:01.889Z,78.13
2018-10-09T10:25:28.949Z,36.73
2018-10-09T10:27:56.264Z,57.83
2018-10-09T10:30:23.414Z,32.30
2018-10-09T10:32:50.494Z,35.30
2018-10-09T10:35:17.790Z,27.50
2018-10-09T10:37:44.873Z,39.70
2018-10-09T10:40:11.992Z,76.23
2018-10-09T10:42:39.333Z,53.03
2018-10-09T10:45:06.420Z,113.90
2018-10-09T10:47:33.535Z,25.70
2018-10-09T10:50:00.649Z,25.80
2018-10-09T10:52:27.770Z,29.30
2018-10-09T10:54:54.895Z,26.20
2018-10-09T10:57:21.974Z,26.57
2018-10-09T10:59:49.080Z,21.90
2018-10-09T11:02:17.622Z,25.07
2018-10-09T11:04:44.886Z,37.90
2018-10-09T11:07:12.011Z,25.60
2018-10-09T11:09:39.161Z,20.50
2018-10-09T11:12:06.250Z,27.20
2018-10-09T11:14:33.316Z,23.33
2018-10-09T11:17:00.358Z,30.53
2018-10-09T11:19:27.777Z,53.37
2018-10-09T11:21:54.847Z,22.40
2018-10-09T11:24:21.885Z,20.03
2018-10-09T11:26:49.028Z,23.13
2018-10-09T11:29:16.157Z,23.20
2018-10-09T11:31:43.259Z,25.10
2018-10-09T11:34:10.546Z,37.87
2018-10-09T11:36:37.649Z,28.53
2018-10-09T11:39:05.815Z,25.30
2018-10-09T11:41:32.944Z,67.47
2018-10-09T11:44:00.022Z,25.40
2018-10-09T11:46:27.113Z,28.10
2018-10-09T11:48:54.210Z,18.77
2018-10-09T11:51:21.314Z,26.87
2018-10-09T11:53:48.389Z,17.77
2018-10-09T11:56:15.837Z,20.07
2018-10-09T11:58:43.042Z,31.50
2018-10-09T12:01:10.181Z,25.80
2018-10-09T12:03:37.591Z,22.83
2018-10-09T12:06:04.710Z,27.30
2018-10-09T12:08:31.827Z,24.50
2018-10-09T12:10:58.965Z,34.30
2018-10-09T12:13:26.110Z,31.43
2018-10-09T12:15:53.233Z,20.33
2018-10-09T12:18:20.592Z,41.53
2018-10-09T12:20:47.632Z,16.83
2018-10-09T12:23:14.673Z,20.80
2018-10-09T12:25:41.758Z,27.50
2018-10-09T12:28:08.796Z,16.70
2018-10-09T12:30:35.862Z,22.17
2018-10-09T12:33:03.342Z,22.00
2018-10-09T12:35:30.347Z,25.50
2018-10-09T12:37:57.475Z,23.97
2018-10-09T12:40:24.561Z,29.83
2018-10-09T12:42:51.655Z,21.67
2018-10-09T12:45:19.084Z,23.00
2018-10-09T12:47:46.543Z,20.70
2018-10-09T12:50:13.644Z,24.40
2018-10-09T12:52:40.775Z,38.80
2018-10-09T12:55:07.936Z,16.90
2018-10-09T12:57:35.037Z,20.03
2018-10-09T13:00:02.128Z,19.17
2018-10-09T13:02:29.634Z,21.63
2018-10-09T13:04:56.745Z,20.33
2018-10-09T13:07:23.815Z,15.50
2018-10-09T13:09:50.999Z,20.67
2018-10-09T13:12:18.068Z,22.63
2018-10-09T13:14:45.169Z,22.77
2018-10-09T13:17:12.645Z,20.33
2018-10-09T13:19:39.687Z,27.73
2018-10-09T13:22:07.127Z,24.07
2018-10-09T13:24:33.984Z,30.27
2018-10-09T13:27:01.055Z,17.77
2018-10-09T13:29:28.142Z,24.50
2018-10-09T13:31:55.310Z,24.47
2018-10-09T13:34:22.448Z,16.67
2018-10-09T13:36:50.108Z,20.67
2018-10-09T13:39:17.497Z,22.10
2018-10-09T13:41:44.593Z,20.30
2018-10-09T13:44:11.774Z,26.90
2018-10-09T13:46:39.423Z,32.37
2018-10-09T13:49:07.012Z,30.63
2018-10-09T13:51:34.106Z,23.47
2018-10-09T13:54:01.221Z,21.80
2018-10-09T13:56:28.356Z,31.13
2018-10-09T13:58:55.440Z,24.60
2018-10-09T14:01:22.878Z,23.00
2018-10-09T14:03:49.994Z,20.93
2018-10-09T14:06:17.167Z,21.67
2018-10-09T14:08:44.464Z,27.93
2018-10-09T14:11:11.557Z,23.30
2018-10-09T14:13:38.671Z,24.80
2018-10-09T14:16:05.879Z,23.57
2018-10-09T14:18:32.931Z,32.93
2018-10-09T14:21:00.007Z,25.90
2018-10-09T14:23:27.185Z,16.10
2018-10-09T14:25:54.341Z,23.50
2018-10-09T14:28:21.389Z,22.57
2018-10-09T14:30:48.438Z,18.33
2018-10-09T14:33:15.573Z,24.77
2018-10-09T14:35:42.653Z,27.30
2018-10-09T14:38:09.785Z,24.80
2018-10-09T14:40:36.872Z,27.37
2018-10-09T14:43:03.993Z,28.60
2018-10-09T14:45:31.377Z,24.03
2018-10-09T14:47:58.443Z,23.20
2018-10-09T14:50:25.534Z,22.30
2018-10-09T14:52:52.632Z,25.10
2018-10-09T14:55:19.697Z,26.43
2018-10-09T14:57:46.932Z,29.57
2018-10-09T15:00:14.383Z,37.40
2018-10-09T15:02:41.586Z,21.30
2018-10-09T15:05:09.220Z,33.10
2018-10-09T15:07:36.573Z,27.50
2018-10-09T15:10:03.636Z,29.43
2018-10-09T15:12:30.705Z,25.70
2018-10-09T15:14:58.220Z,22.33
2018-10-09T15:17:25.361Z,31.27
2018-10-09T15:19:52.693Z,25.27
2018-10-09T15:22:19.740Z,34.93
2018-10-09T15:24:46.865Z,32.87
2018-10-09T15:27:13.934Z,35.13
2018-10-09T15:29:41.414Z,33.43
2018-10-09T15:32:08.450Z,24.47
2018-10-09T15:34:35.492Z,32.80
2018-10-09T15:37:02.931Z,37.57
2018-10-09T15:39:30.016Z,41.53
2018-10-09T15:41:57.169Z,35.87
2018-10-09T15:44:24.242Z,34.50
2018-10-09T15:46:51.301Z,29.83
2018-10-09T15:49:18.580Z,35.17
2018-10-09T15:51:45.953Z,33.63
2018-10-09T15:54:13.083Z,36.40
2018-10-09T15:56:40.323Z,31.67
2018-10-09T15:59:07.692Z,45.33
2018-10-09T16:01:34.769Z,37.50
2018-10-09T16:04:01.946Z,48.70
2018-10-09T16:06:29.049Z,50.50
2018-10-09T16:08:56.109Z,36.80
2018-10-09T16:11:23.225Z,63.97
2018-10-09T16:13:50.729Z,51.97
2018-10-09T16:16:17.773Z,41.40
2018-10-09T16:18:44.801Z,40.87
2018-10-09T16:21:11.844Z,36.10
2018-10-09T16:23:38.952Z,41.83
2018-10-09T16:26:06.033Z,37.50
2018-10-09T16:28:33.532Z,46.00
2018-10-09T16:31:00.585Z,33.93
2018-10-09T16:33:27.665Z,42.37
2018-10-09T16:35:54.745Z,35.23
2018-10-09T16:38:22.017Z,42.10
2018-10-09T16:40:49.114Z,38.77
2018-10-09T16:43:16.461Z,34.80
2018-10-09T16:45:43.545Z,37.23
2018-10-09T16:48:10.617Z,36.00
2018-10-09T16:50:37.676Z,34.63
2018-10-09T16:53:04.742Z,42.13
2018-10-09T16:55:31.903Z,45.27
2018-10-09T16:57:59.046Z,38.33
2018-10-09T17:00:26.204Z,43.00
2018-10-09T17:02:53.259Z,48.20
2018-10-09T17:05:20.686Z,48.17
2018-10-09T17:07:47.724Z,50.33
2018-10-09T17:10:14.774Z,56.03
2018-10-09T17:12:41.857Z,52.57
2018-10-09T17:15:08.983Z,50.97
2018-10-09T17:17:36.241Z,51.10
2018-10-09T17:20:03.677Z,62.63
2018-10-09T17:22:30.823Z,49.23
2018-10-09T17:24:57.880Z,61.30
2018-10-09T17:27:25.215Z,56.40
2018-10-09T17:29:52.285Z,54.53
2018-10-09T17:32:19.409Z,61.13
2018-10-09T17:34:46.483Z,40.83
2018-10-09T17:37:13.523Z,51.83
2018-10-09T17:39:40.650Z,47.60
2018-10-09T17:42:07.962Z,42.27
2018-10-09T17:44:35.115Z,49.83
2018-10-09T17:47:06.210Z,51.30
2018-10-09T17:49:33.597Z,43.63
2018-10-09T17:52:00.689Z,43.93
2018-10-09T17:54:27.804Z,47.00
2018-10-09T17:56:54.881Z,43.23
2018-10-09T17:59:21.949Z,46.33
2018-10-09T18:01:49.011Z,41.00
2018-10-09T18:04:16.148Z,58.17
2018-10-09T18:06:43.221Z,45.20
2018-10-09T18:09:11.280Z,50.60
2018-10-09T18:11:39.053Z,45.27
2018-10-09T18:14:06.168Z,51.97
2018-10-09T18:16:33.219Z,49.10
2018-10-09T18:19:00.317Z,46.50
2018-10-09T18:21:27.502Z,50.00
2018-10-09T18:23:54.590Z,44.83
2018-10-09T18:26:21.684Z,51.40
2018-10-09T18:28:48.748Z,48.90
2018-10-09T18:31:15.833Z,51.57
2018-10-09T18:33:42.965Z,54.00
2018-10-09T18:36:10.060Z,47.57
2018-10-09T18:38:37.167Z,63.87
2018-10-09T18:41:04.614Z,47.83
2018-10-09T18:43:31.641Z,61.20
2018-10-09T18:45:58.700Z,53.27
2018-10-09T18:48:25.804Z,51.67
2018-10-09T18:50:52.981Z,61.63
2018-10-09T18:53:20.069Z,51.43
2018-10-09T18:55:47.196Z,54.47
2018-10-09T18:58:14.432Z,55.80
2018-10-09T19:00:41.496Z,55.30
2018-10-09T19:03:08.887Z,56.63
2018-10-09T19:05:35.927Z,62.73
2018-10-09T19:08:02.991Z,57.70
2018-10-09T19:10:30.149Z,58.87
2018-10-09T19:12:57.225Z,54.60
2018-10-09T19:15:24.341Z,56.17
2018-10-09T19:17:51.773Z,57.20
2018-10-09T19:20:18.795Z,61.97
2018-10-09T19:22:45.849Z,60.37
2018-10-09T19:25:12.933Z,59.57
2018-10-09T19:27:39.996Z,59.17
2018-10-09T19:30:07.173Z,60.70
2018-10-09T19:32:34.359Z,58.50
2018-10-09T19:35:01.424Z,62.97
2018-10-09T19:37:28.482Z,56.17
2018-10-09T19:39:55.818Z,52.33
2018-10-09T19:42:23.117Z,54.27
2018-10-09T19:44:50.176Z,55.97
2018-10-09T19:47:17.572Z,57.10
2018-10-09T19:49:44.721Z,57.00
2018-10-09T19:52:12.025Z,58.93
2018-10-09T19:54:39.184Z,62.47
2018-10-09T19:57:06.256Z,61.40
2018-10-09T19:59:33.295Z,57.07
2018-10-09T20:02:00.684Z,59.83
2018-10-09T20:04:27.742Z,67.03
2018-10-09T20:06:54.802Z,62.07
2018-10-09T20:09:22.162Z,62.30
2018-10-09T20:11:49.245Z,81.50
2018-10-09T20:14:16.390Z,64.50
2018-10-09T20:16:43.916Z,69.47
2018-10-09T20:19:11.451Z,68.87
2018-10-09T20:21:38.544Z,69.60
2018-10-09T20:24:06.265Z,72.83
2018-10-09T20:26:33.676Z,74.97
2018-10-09T20:29:00.822Z,73.20
2018-10-09T20:31:27.940Z,79.50
2018-10-09T20:33:55.045Z,81.60
2018-10-09T20:36:22.076Z,77.23
2018-10-09T20:38:49.429Z,80.90
2018-10-09T20:41:16.504Z,73.73
2018-10-09T20:43:43.737Z,79.47
2018-10-09T20:46:11.588Z,71.60
2018-10-09T20:48:38.690Z,71.00
2018-10-09T20:51:06.072Z,63.17
2018-10-09T20:53:33.263Z,71.07
2018-10-09T20:56:00.436Z,76.53
2018-10-09T20:58:27.479Z,69.83
2018-10-09T21:00:54.886Z,73.00
2018-10-09T21:03:22.047Z,70.63
2018-10-09T21:05:49.377Z,72.67
2018-10-09T21:08:16.740Z,81.27
2018-10-09T21:10:44.147Z,84.27
2018-10-09T21:13:11.233Z,76.07
2018-10-09T21:15:38.638Z,81.07
2018-10-09T21:18:06.727Z,82.97
2018-10-09T21:20:33.788Z,70.70
2018-10-09T21:23:01.176Z,77.23
2018-10-09T21:25:30.271Z,82.63
2018-10-09T21:27:57.509Z,71.37
2018-10-09T21:30:24.667Z,71.10
2018-10-09T21:32:51.736Z,73.03
2018-10-09T21:35:18.819Z,78.17
2018-10-09T21:37:46.190Z,78.93
2018-10-09T21:40:13.439Z,73.97
2018-10-09T21:42:40.978Z,71.33
2018-10-09T21:45:08.617Z,71.13
2018-10-09T21:47:35.784Z,77.63
2018-10-09T21:50:02.956Z,72.73
2018-10-09T21:52:30.095Z,67.97
2018-10-09T21:54:57.175Z,71.40
2018-10-09T21:57:24.436Z,69.90
2018-10-09T21:59:51.515Z,73.37
2018-10-09T22:02:18.598Z,67.03
2018-10-09T22:04:45.786Z,73.90
2018-10-09T22:07:16.045Z,69.33
2018-10-09T22:09:44.114Z,71.63
2018-10-09T22:12:11.458Z,73.23
2018-10-09T22:14:38.941Z,71.83
2018-10-09T22:17:06.172Z,72.03
2018-10-09T22:19:33.526Z,72.20
2018-10-09T22:22:00.862Z,78.13
2018-10-09T22:24:28.352Z,72.57
2018-10-09T22:26:55.482Z,70.37
2018-10-09T22:29:22.712Z,77.37
2018-10-09T22:31:49.902Z,73.33
2018-10-09T22:34:17.086Z,75.00
2018-10-09T22:36:44.715Z,73.93
2018-10-09T22:39:12.056Z,67.90
2018-10-09T22:41:39.508Z,72.57
2018-10-09T22:44:07.455Z,63.10
2018-10-09T22:46:34.582Z,65.13
2018-10-09T22:49:01.914Z,64.30
2018-10-09T22:51:29.411Z,68.40
2018-10-09T22:53:56.344Z,74.43
2018-10-09T22:56:23.512Z,69.77
2018-10-09T22:58:50.601Z,67.90
2018-10-09T23:01:17.662Z,71.23
2018-10-09T23:03:44.870Z,77.70
2018-10-09T23:06:12.402Z,67.13
2018-10-09T23:08:39.579Z,72.33
2018-10-09T23:11:07.103Z,70.73
2018-10-09T23:13:34.316Z,70.83
2018-10-09T23:16:01.344Z,72.03
2018-10-09T23:18:28.598Z,72.57
2018-10-09T23:20:56.075Z,66.97
2018-10-09T23:23:23.216Z,70.67
2018-10-09T23:25:50.402Z,81.97
2018-10-09T23:28:17.540Z,74.97
2018-10-09T23:30:44.769Z,73.70
2018-10-09T23:33:12.043Z,71.87
2018-10-09T23:35:39.572Z,74.30
2018-10-09T23:38:06.660Z,68.10
2018-10-09T23:40:33.765Z,66.87
2018-10-09T23:43:01.233Z,78.00
2018-10-09T23:45:28.360Z,67.80
2018-10-09T23:48:10.795Z,67.53
2018-10-09T23:50:39.993Z,65.27
2018-10-09T23:53:07.047Z,73.07
2018-10-09T23:55:34.708Z,66.30
2018-10-09T23:58:01.777Z,72.93
